Data for 03/09/2009

Time Sea-Level Adjusted Pressure Absolute Pressure Temperature Relative Humidity Dew Point   
(mb) (inHg) (mb) (inHg) (C) (F) (%) (C) (F)
00:05 1013 29.91 843 24.89 -12.6 9.4 75 -16.2 2.9
00:10 1014 29.94 843 24.89 -12.5 9.4 74 -16.2 2.8
00:15 1013 29.91 843 24.89 -12.6 9.3 75 -16.2 2.8
00:20 1013 29.91 842 24.86 -12.6 9.3 75 -16.2 2.8
00:25 1013 29.91 843 24.89 -12.7 9.2 75 -16.2 2.8
00:30 1014 29.94 843 24.89 -12.8 9 76 -16.2 2.9
00:35 1014 29.94 843 24.89 -12.9 8.9 76 -16.2 2.8
00:40 1014 29.94 843 24.89 -12.9 8.8 76 -16.2 2.8
00:45 1014 29.94 843 24.89 -12.9 8.7 77 -16.2 2.9
00:50 1014 29.94 843 24.89 -12.9 8.7 77 -16.2 2.8
00:55 1014 29.94 843 24.89 -12.9 8.7 77 -16.2 2.9
01:55 1014 29.94 843 24.89 -13 8.7 77 -16.2 2.9
02:00 1014 29.94 843 24.89 -12.9 8.7 77 -16.2 2.9
02:05 1014 29.94 843 24.89 -13 8.7 77 -16.2 2.8
02:10 1014 29.94 843 24.89 -13 8.5 77 -16.2 2.8
02:15 1014 29.94 843 24.89 -13.1 8.4 76 -16.4 2.5
02:20 1014 29.94 843 24.89 -13.1 8.4 76 -16.5 2.3
02:25 1014 29.94 843 24.89 -13.1 8.4 77 -16.4 2.5
02:30 1014 29.94 843 24.89 -13.1 8.4 76 -16.5 2.3
02:35 1014 29.94 843 24.89 -13.1 8.4 76 -16.4 2.4
02:40 1014 29.94 843 24.89 -13.1 8.4 76 -16.5 2.3
02:45 1014 29.94 843 24.89 -13.1 8.4 76 -16.5 2.2
02:50 1014 29.94 843 24.89 -13.2 8.2 76 -16.6 2.1
02:55 1014 29.94 843 24.89 -13.3 8.1 76 -16.7 1.9
03:00 1014 29.94 843 24.89 -13.3 8 76 -16.7 1.9
03:05 1014 29.94 843 24.89 -13.4 7.9 76 -16.8 1.7
03:10 1014 29.94 843 24.89 -13.4 7.8 75 -16.9 1.6
03:15 1014 29.94 843 24.89 -13.5 7.7 76 -16.9 1.6
03:20 1014 29.94 843 24.89 -13.6 7.6 76 -16.9 1.5
03:25 1014 29.94 843 24.89 -13.6 7.5 76 -17.1 1.3
03:30 1014 29.94 843 24.89 -13.6 7.4 75 -17.2 1.1
03:35 1014 29.94 843 24.89 -13.7 7.4 75 -17.2 1
03:40 1013 29.91 843 24.89 -13.8 7.3 75 -17.2 1
03:45 1013 29.91 843 24.89 -13.8 7.2 75 -17.3 0.8
03:50 1014 29.94 843 24.89 -13.9 7 76 -17.3 0.8
03:55 1014 29.94 843 24.89 -13.9 6.9 76 -17.3 0.9
04:00 1014 29.94 843 24.89 -14 6.8 78 -17.1 1.2
04:05 1014 29.94 843 24.89 -14 6.7 78 -17.1 1.3
04:10 1014 29.94 843 24.89 -14.1 6.7 79 -16.9 1.5
04:15 1014 29.94 843 24.89 -14.1 6.6 80 -16.9 1.6
04:20 1014 29.94 843 24.89 -14.2 6.4 80 -17 1.4
04:25 1014 29.94 843 24.89 -14.2 6.4 79 -17.1 1.3
04:30 1014 29.94 843 24.89 -14.2 6.5 78 -17.2 1.1
04:35 1014 29.94 843 24.89 -14.2 6.5 78 -17.2 1
04:40 1014 29.94 843 24.89 -14.2 6.4 78 -17.2 1
04:45 1014 29.94 843 24.89 -14.3 6.3 78 -17.3 0.8
04:50 1014 29.94 843 24.89 -14.3 6.4 80 -17 1.5
04:55 1014 29.94 843 24.89 -14.6 5.7 82 -17.1 1.3
05:00 1014 29.94 843 24.89 -14.5 5.9 77 -17.7 0.1
05:05 1014 29.94 843 24.89 -14.4 6.1 75 -17.9 -0.3
05:10 1014 29.94 843 24.89 -14.3 6.2 74 -18 -0.4
05:15 1014 29.94 843 24.89 -14.3 6.3 74 -17.9 -0.2
05:20 1014 29.94 844 24.92 -14.3 6.3 73 -18.1 -0.5
05:25 1014 29.94 844 24.92 -14.3 6.3 72 -18.2 -0.8
05:30 1014 29.94 844 24.92 -14.3 6.3 73 -18.2 -0.7
05:35 1014 29.94 844 24.92 -14.3 6.2 73 -18.2 -0.7
05:40 1014 29.94 844 24.92 -14.3 6.3 73 -18.2 -0.7
05:45 1014 29.94 844 24.92 -14.3 6.3 73 -18.1 -0.6
05:50 1014 29.94 844 24.92 -14.3 6.2 76 -17.7 0.1
05:55 1014 29.94 844 24.92 -14.4 6.2 76 -17.7 0.2
06:00 1014 29.94 844 24.92 -14.5 6 78 -17.5 0.4
06:05 1014 29.94 844 24.92 -14.6 5.8 80 -17.2 1
06:10 1014 29.94 844 24.92 -14.6 5.7 81 -17.2 1.1
06:15 1015 29.97 844 24.92 -14.7 5.5 81 -17.3 0.9
06:20 1015 29.97 844 24.92 -14.7 5.5 79 -17.6 0.4
06:25 1015 29.97 844 24.92 -14.8 5.4 80 -17.6 0.4
06:30 1015 29.97 844 24.92 -15.1 4.7 84 -17.3 0.8
06:35 1015 29.97 844 24.92 -15.7 3.8 86 -17.6 0.4
06:40 1015 29.97 844 24.92 -15.9 3.5 86 -17.8 0
06:45 1015 29.97 844 24.92 -15.8 3.7 86 -17.7 0.2
06:50 1015 29.97 844 24.92 -15.7 3.7 86 -17.6 0.4
06:55 1015 29.97 844 24.92 -15.6 3.8 84 -17.7 0.1
07:00 1015 29.97 844 24.92 -15.7 3.8 80 -18.4 -1.1
07:05 1015 29.97 844 24.92 -15.2 4.7 74 -18.8 -1.8
07:10 1015 29.97 844 24.92 -15 5.1 73 -18.7 -1.7
07:15 1015 29.97 844 24.92 -15 5 73 -18.8 -1.9
07:20 1015 29.97 844 24.92 -15 5 73 -18.8 -1.8
07:25 1015 29.97 844 24.92 -15 5 73 -18.8 -1.8
07:30 1015 29.97 844 24.92 -15 4.9 74 -18.7 -1.7
07:35 1015 29.97 844 24.92 -15 4.9 73 -18.8 -1.9
07:40 1015 29.97 844 24.92 -15 5.1 73 -18.8 -1.8
07:45 1015 29.97 844 24.92 -15 5 74 -18.6 -1.5
07:50 1015 29.97 844 24.92 -15.1 4.9 76 -18.5 -1.2
07:55 1015 29.97 844 24.92 -15.1 4.8 75 -18.6 -1.4
08:00 1015 29.97 844 24.92 -15.2 4.7 75 -18.7 -1.7
08:05 1015 29.97 844 24.92 -15.2 4.6 74 -18.9 -1.9
08:10 1015 29.97 844 24.92 -15.3 4.5 73 -19 -2.3
08:15 1015 29.97 844 24.92 -15.3 4.4 73 -19.2 -2.5
08:20 1015 29.97 844 24.92 -15.4 4.3 72 -19.3 -2.8
08:25 1015 29.97 844 24.92 -15.4 4.3 70 -19.6 -3.3
08:30 1015 29.97 844 24.92 -15.3 4.5 69 -19.7 -3.4
08:35 1015 29.97 844 24.92 -15.1 4.8 68 -19.7 -3.5
08:40 1015 29.97 844 24.92 -15 5 69 -19.5 -3.1
08:45 1015 29.97 844 24.92 -14.9 5.1 66 -19.9 -3.8
08:50 1015 29.97 844 24.92 -14.8 5.3 77 -18 -0.4
08:55 1015 29.97 844 24.92 -15.1 4.7 71 -19.2 -2.6
09:00 1015 29.97 844 24.92 -14.7 5.6 73 -18.6 -1.5
09:05 1015 29.97 844 24.92 -14.6 5.6 72 -18.6 -1.6
09:10 1015 29.97 844 24.92 -14.4 6.2 70 -18.7 -1.7
09:15 1015 29.97 844 24.92 -14.8 5.4 72 -18.7 -1.7
09:20 1015 29.97 844 24.92 -15.2 4.7 73 -19 -2.2
09:25 1015 29.97 844 24.92 -15 5 70 -19.3 -2.7
09:30 1015 29.97 844 24.92 -14.9 5.1 68 -19.5 -3.2
09:35 1015 29.97 844 24.92 -14.7 5.5 66 -19.7 -3.5
09:40 1015 29.97 844 24.92 -14.7 5.6 65 -19.8 -3.6
09:45 1015 29.97 844 24.92 -14.9 5.3 64 -20.2 -4.3
09:50 1015 29.97 844 24.92 -14.8 5.4 64 -20.2 -4.3
09:55 1015 29.97 844 24.92 -14.8 5.4 65 -20 -4.1
10:00 1015 29.97 844 24.92 -14.7 5.6 64 -20.1 -4.1
10:05 1015 29.97 844 24.92 -14.3 6.2 62 -20.1 -4.2
10:10 1015 29.97 844 24.92 -14.3 6.3 62 -20.1 -4.1
10:15 1015 29.97 844 24.92 -14 6.7 63 -19.7 -3.4
10:20 1015 29.97 844 24.92 -14.2 6.5 66 -19.3 -2.7
10:25 1015 29.97 844 24.92 -14.9 5.2 68 -19.5 -3.1
10:30 1015 29.97 844 24.92 -14.9 5.2 71 -19.1 -2.3
10:35 1015 29.97 844 24.92 -15 5 70 -19.4 -2.9
10:40 1015 29.97 844 24.92 -15 5 71 -19.2 -2.5
10:45 1015 29.97 844 24.92 -14.8 5.3 70 -19.1 -2.4
10:50 1015 29.97 844 24.92 -14.3 6.2 69 -18.8 -1.8
10:55 1015 29.97 844 24.92 -14.1 6.6 69 -18.7 -1.7
11:00 1015 29.97 844 24.92 -14.7 5.5 68 -19.4 -3
11:05 1015 29.97 845 24.95 -14.3 6.3 68 -19 -2.2
11:10 1015 29.97 845 24.95 -13.6 7.6 67 -18.5 -1.3
11:15 1015 29.97 845 24.95 -13.3 8.1 65 -18.5 -1.3
11:20 1015 29.97 845 24.95 -14.1 6.6 68 -18.8 -1.9
11:25 1015 29.97 844 24.92 -13.8 7.1 66 -19 -2.1
11:30 1015 29.97 844 24.92 -13.8 7.2 64 -19.2 -2.6
11:35 1015 29.97 844 24.92 -13.8 7.1 65 -19 -2.2
11:40 1015 29.97 844 24.92 -13.5 7.6 65 -18.8 -1.9
11:45 1015 29.97 844 24.92 -13.2 8.3 67 -18.1 -0.6
11:50 1015 29.97 844 24.92 -14 6.8 68 -18.7 -1.6
11:55 1015 29.97 844 24.92 -13.8 7.1 68 -18.5 -1.3
12:00 1015 29.97 844 24.92 -13 8.6 67 -17.9 -0.2
12:05 1015 29.97 844 24.92 -13.4 8 65 -18.5 -1.4
12:10 1015 29.97 844 24.92 -13.1 8.5 67 -18 -0.3
12:15 1015 29.97 844 24.92 -12.7 9.2 58 -19.3 -2.8
12:20 1015 29.97 844 24.92 -12.7 9.2 59 -19.1 -2.5
12:25 1015 29.97 844 24.92 -13 8.5 59 -19.4 -3
12:30 1015 29.97 844 24.92 -12.8 9 60 -19.1 -2.4
12:35 1015 29.97 844 24.92 -12.4 9.7 56 -19.4 -3
12:40 1015 29.97 844 24.92 -12.3 9.9 58 -19 -2.2
12:45 1015 29.97 844 24.92 -12.1 10.1 58 -18.8 -1.8
12:50 1015 29.97 844 24.92 -11.8 10.8 57 -18.7 -1.7
12:55 1015 29.97 844 24.92 -12.1 10.2 55 -19.4 -3
13:00 1014 29.94 844 24.92 -12.7 9.1 58 -19.4 -2.8
13:05 1015 29.97 844 24.92 -13 8.6 61 -19.1 -2.3
13:10 1014 29.94 844 24.92 -12.7 9.1 58 -19.3 -2.8
13:15 1014 29.94 844 24.92 -12.7 9.2 61 -18.6 -1.6
13:20 1014 29.94 844 24.92 -13.1 8.5 61 -19 -2.2
13:25 1014 29.94 844 24.92 -12.9 8.7 64 -18.5 -1.2
13:30 1014 29.94 844 24.92 -12.8 8.9 65 -18.2 -0.7
13:35 1014 29.94 844 24.92 -13.5 7.7 68 -18.2 -0.8
13:40 1014 29.94 844 24.92 -13 8.5 62 -18.8 -1.9
13:45 1014 29.94 843 24.89 -12.9 8.9 61 -18.9 -2
13:50 1014 29.94 843 24.89 -12.3 9.9 56 -19.3 -2.8
13:55 1014 29.94 843 24.89 -12.3 9.8 56 -19.4 -2.8
14:00 1014 29.94 843 24.89 -12.5 9.6 60 -18.7 -1.7
14:05 1014 29.94 843 24.89 -12 10.5 57 -18.8 -1.8
14:10 1014 29.94 843 24.89 -11.7 11 57 -18.7 -1.6
14:15 1014 29.94 843 24.89 -11.4 11.5 53 -19.1 -2.4
14:20 1014 29.94 843 24.89 -12.1 10.2 58 -18.8 -1.9
14:25 1014 29.94 843 24.89 -12.2 10 57 -19.2 -2.5
14:30 1014 29.94 843 24.89 -12.4 9.7 57 -19.2 -2.6
14:35 1013 29.91 843 24.89 -12.5 9.6 59 -18.8 -1.9
14:40 1013 29.91 843 24.89 -12.3 9.9 59 -18.8 -1.8
14:45 1013 29.91 843 24.89 -12.4 9.7 58 -19.1 -2.4
14:50 1013 29.91 843 24.89 -12.4 9.8 58 -18.9 -2.1
14:55 1013 29.91 842 24.86 -12.4 9.6 58 -19.1 -2.3
15:00 1013 29.91 842 24.86 -12.1 10.1 57 -19.1 -2.4
15:05 1013 29.91 842 24.86 -12.5 9.5 59 -18.9 -2
15:10 1013 29.91 842 24.86 -12.6 9.3 57 -19.4 -2.9
15:15 1013 29.91 842 24.86 -12.7 9.1 59 -19.2 -2.5
15:20 1013 29.91 842 24.86 -12.6 9.2 60 -19 -2.1
15:25 1013 29.91 842 24.86 -12.9 8.7 60 -19.2 -2.6
15:30 1013 29.91 842 24.86 -12.7 9.2 57 -19.6 -3.2
15:35 1013 29.91 842 24.86 -13.2 8.3 59 -19.5 -3.1
15:40 1013 29.91 842 24.86 -13.1 8.5 60 -19.4 -2.8
15:45 1013 29.91 842 24.86 -12.9 8.8 59 -19.4 -2.9
15:50 1013 29.91 842 24.86 -12.6 9.3 60 -18.9 -2.1
15:55 1013 29.91 842 24.86 -12.6 9.4 58 -19.1 -2.4
16:00 1013 29.91 842 24.86 -12.9 8.8 61 -18.9 -2
16:05 1013 29.91 842 24.86 -12.7 9.2 59 -19.2 -2.5
16:10 1013 29.91 842 24.86 -12.8 8.9 60 -19.1 -2.3
16:15 1013 29.91 842 24.86 -13 8.5 62 -18.9 -2.1
16:20 1013 29.91 842 24.86 -13 8.5 62 -19 -2.1
16:25 1013 29.91 842 24.86 -13.1 8.4 60 -19.3 -2.8
16:30 1013 29.91 842 24.86 -13.6 7.4 64 -19.2 -2.5
16:35 1013 29.91 842 24.86 -13.6 7.5 63 -19.2 -2.6
16:40 1013 29.91 842 24.86 -13.8 7.2 65 -19 -2.2
16:45 1012 29.88 842 24.86 -13.8 7.2 64 -19.1 -2.4
16:50 1013 29.91 842 24.86 -13.5 7.7 63 -19.1 -2.4
16:55 1013 29.91 842 24.86 -13.8 7.2 64 -19.2 -2.5
17:00 1013 29.91 842 24.86 -14 6.8 64 -19.4 -3
17:05 1013 29.91 842 24.86 -14.1 6.7 65 -19.3 -2.7
17:10 1013 29.91 842 24.86 -14.1 6.6 65 -19.4 -2.9
17:15 1013 29.91 842 24.86 -14.2 6.5 65 -19.5 -3.1
17:20 1013 29.91 842 24.86 -14.3 6.2 65 -19.6 -3.2
17:25 1013 29.91 842 24.86 -14.3 6.2 65 -19.6 -3.2
17:30 1013 29.91 842 24.86 -14.4 6.2 65 -19.5 -3.2
17:35 1013 29.91 842 24.86 -14.3 6.2 66 -19.4 -2.9
17:40 1013 29.91 842 24.86 -14.5 5.9 66 -19.5 -3.1
17:45 1013 29.91 842 24.86 -14.7 5.6 66 -19.6 -3.4
17:50 1013 29.91 842 24.86 -14.8 5.4 66 -19.8 -3.6
17:55 1013 29.91 842 24.86 -14.8 5.5 65 -20 -4
18:00 1013 29.91 842 24.86 -14.6 5.8 65 -19.8 -3.6
18:05 1013 29.91 842 24.86 -14.4 6.1 64 -19.8 -3.6
18:10 1013 29.91 842 24.86 -14.6 5.6 65 -19.9 -3.8
18:15 1013 29.91 842 24.86 -14.8 5.3 66 -19.9 -3.8
18:20 1013 29.91 842 24.86 -15 5 66 -19.9 -3.9
18:25 1013 29.91 842 24.86 -15.2 4.6 67 -20 -3.9
18:30 1013 29.91 842 24.86 -15.2 4.6 68 -19.9 -3.9
18:35 1013 29.91 842 24.86 -15.3 4.4 68 -20 -4
18:40 1013 29.91 842 24.86 -15.2 4.6 67 -20 -4.1
18:45 1013 29.91 842 24.86 -15.3 4.4 68 -20 -4
18:50 1013 29.91 842 24.86 -15.6 4 69 -20 -3.9
18:55 1013 29.91 842 24.86 -15.6 3.9 69 -20 -4
19:00 1013 29.91 842 24.86 -15.7 3.8 70 -20 -3.9
19:05 1013 29.91 842 24.86 -15.9 3.5 71 -20 -4
19:10 1013 29.91 842 24.86 -16 3.1 72 -20 -4
19:15 1013 29.91 842 24.86 -16.2 2.8 72 -20.2 -4.3
19:20 1013 29.91 842 24.86 -16.3 2.7 73 -20.1 -4.2
19:25 1013 29.91 842 24.86 -16.3 2.6 72 -20.2 -4.4
19:30 1013 29.91 842 24.86 -16.3 2.6 72 -20.3 -4.5
19:35 1013 29.91 842 24.86 -16.4 2.4 73 -20.3 -4.5
19:40 1013 29.91 842 24.86 -16.5 2.3 72 -20.4 -4.7
19:45 1013 29.91 842 24.86 -16.6 2.2 73 -20.4 -4.7
19:50 1013 29.91 842 24.86 -16.6 2.1 73 -20.4 -4.8
19:55 1013 29.91 842 24.86 -16.6 2.2 73 -20.4 -4.7
20:00 1013 29.91 842 24.86 -16.7 2 73 -20.4 -4.7
20:05 1013 29.91 842 24.86 -16.7 1.9 73 -20.4 -4.8
20:10 1013 29.91 842 24.86 -16.8 1.7 74 -20.4 -4.8
20:15 1013 29.91 842 24.86 -16.9 1.6 74 -20.5 -4.8
20:20 1013 29.91 842 24.86 -16.9 1.5 74 -20.5 -4.9
20:25 1013 29.91 842 24.86 -17 1.4 74 -20.5 -5
20:30 1013 29.91 842 24.86 -17 1.3 75 -20.5 -5
20:35 1013 29.91 842 24.86 -17.1 1.2 75 -20.5 -5
20:40 1013 29.91 842 24.86 -17.1 1.2 75 -20.5 -5
20:45 1013 29.91 842 24.86 -17.2 1.1 75 -20.6 -5
20:50 1013 29.91 842 24.86 -17.2 1 76 -20.6 -5
20:55 1013 29.91 842 24.86 -17.3 0.9 76 -20.6 -5
21:00 1013 29.91 842 24.86 -17.3 0.9 76 -20.5 -5
21:05 1013 29.91 842 24.86 -17.3 0.9 76 -20.6 -5
21:10 1013 29.91 842 24.86 -17.3 0.8 76 -20.6 -5.1
21:15 1013 29.91 842 24.86 -17.4 0.7 76 -20.6 -5.2
21:20 1013 29.91 842 24.86 -17.4 0.6 76 -20.7 -5.2
21:25 1013 29.91 842 24.86 -17.5 0.5 76 -20.7 -5.3
21:30 1013 29.91 842 24.86 -17.5 0.5 76 -20.7 -5.3
21:35 1013 29.91 842 24.86 -17.6 0.4 76 -20.8 -5.4
21:40 1013 29.91 842 24.86 -17.6 0.3 77 -20.8 -5.4
21:45 1013 29.91 842 24.86 -17.6 0.3 77 -20.8 -5.4
21:50 1013 29.91 842 24.86 -17.6 0.3 76 -20.8 -5.4
21:55 1013 29.91 842 24.86 -17.6 0.3 77 -20.8 -5.4
22:00 1013 29.91 842 24.86 -17.6 0.2 77 -20.8 -5.4
22:05 1013 29.91 842 24.86 -17.7 0.1 77 -20.8 -5.5
22:10 1013 29.91 842 24.86 -17.8 0 77 -20.9 -5.6
22:15 1013 29.91 842 24.86 -17.8 -0 78 -20.8 -5.5
22:20 1013 29.91 842 24.86 -17.8 -0 77 -20.8 -5.5
22:25 1013 29.91 842 24.86 -17.9 -0.2 78 -20.8 -5.5
22:30 1013 29.91 842 24.86 -17.9 -0.3 78 -20.9 -5.6
22:35 1013 29.91 842 24.86 -17.9 -0.3 78 -20.9 -5.7
22:40 1013 29.91 842 24.86 -17.9 -0.1 77 -20.9 -5.7
22:45 1013 29.91 842 24.86 -17.8 -0.1 77 -21 -5.8
22:50 1013 29.91 842 24.86 -17.8 -0.1 76 -21.1 -5.9
22:55 1013 29.91 842 24.86 -17.8 -0 75 -21.2 -6.1
23:00 1013 29.91 842 24.86 -17.8 0.1 75 -21.2 -6.2
23:05 1013 29.91 842 24.86 -17.8 -0.1 75 -21.3 -6.3
23:10 1013 29.91 842 24.86 -18 -0.3 76 -21.3 -6.3
23:15 1013 29.91 842 24.86 -18 -0.4 76 -21.2 -6.1
23:20 1013 29.91 842 24.86 -18 -0.4 77 -21.2 -6.1
23:25 1012 29.88 842 24.86 -18 -0.4 77 -21.2 -6.1
23:30 1012 29.88 842 24.86 -18 -0.5 77 -21.2 -6.1
23:35 1013 29.91 842 24.86 -18.1 -0.6 77 -21.2 -6.1
23:40 1013 29.91 842 24.86 -18.1 -0.6 77 -21.2 -6.2
23:45 1013 29.91 842 24.86 -18.1 -0.6 77 -21.2 -6.2
23:50 1013 29.91 842 24.86 -18.2 -0.7 77 -21.3 -6.3
23:55 1013 29.91 842 24.86 -18.2 -0.7 77 -21.3 -6.3
24:00 1013 29.91 842 24.86 -18.1 -0.7 77 -21.3 -6.3